LXP312 SCCI-SCTE
Flight info
| Callsign | LXP312 |
|---|---|
| Flight time | N/A |
| Altitude | 34000 |
| Route | SIRUN4A SIRUN UQ802 CAUKE CAUKE5B |
| Aircraft | A320/M-SDE3FGHIRWY/LB1 |
Departure
| Time | 2026-04-20 21:18 |
|---|---|
| Airport | President Carlos Ibáñez International Airport (SCCI) |
Arrival
| Time | N/A |
|---|---|
| Airport | El Tepual International Airport (SCTE) |
| Time | Latitude | Longitude | Altitude | Speed | Heading |
|---|---|---|---|---|---|
| 2026-04-20 20:19 | -53.00448 | -70.84364 | 148 ft | 0 kts | 179° |
| 2026-04-20 20:24 | -53.00447 | -70.84364 | 148 ft | 0 kts | 179° |
| 2026-04-20 20:57 | -53.00446 | -70.84364 | 147 ft | 0 kts | 179° |
| 2026-04-20 20:57 | -53.00431 | -70.84364 | 147 ft | 2 kts | 179° |
| 2026-04-20 20:57 | -53.00414 | -70.84364 | 147 ft | 2 kts | 203° |
| 2026-04-20 20:58 | -53.00399 | -70.84353 | 147 ft | 2 kts | 224° |
| 2026-04-20 20:58 | -53.00392 | -70.84333 | 147 ft | 0 kts | 268° |
| 2026-04-20 21:05 | -53.00392 | -70.84335 | 147 ft | 2 kts | 268° |
| 2026-04-20 21:06 | -53.00392 | -70.84368 | 147 ft | 3 kts | 268° |
| 2026-04-20 21:06 | -53.00393 | -70.84417 | 147 ft | 6 kts | 270° |
| 2026-04-20 21:06 | -53.00384 | -70.84492 | 147 ft | 7 kts | 279° |
| 2026-04-20 21:06 | -53.00385 | -70.84587 | 147 ft | 9 kts | 266° |
| 2026-04-20 21:07 | -53.00394 | -70.84698 | 147 ft | 11 kts | 256° |
| 2026-04-20 21:07 | -53.00398 | -70.84828 | 147 ft | 12 kts | 271° |
| 2026-04-20 21:07 | -53.00397 | -70.84967 | 148 ft | 11 kts | 269° |
| 2026-04-20 21:07 | -53.00398 | -70.85005 | 148 ft | 2 kts | 269° |
| 2026-04-20 21:08 | -53.00398 | -70.85019 | 148 ft | 0 kts | 269° |
| 2026-04-20 21:08 | -53.00398 | -70.85048 | 148 ft | 3 kts | 269° |
| 2026-04-20 21:08 | -53.00399 | -70.85079 | 149 ft | 2 kts | 264° |
| 2026-04-20 21:09 | -53.00399 | -70.85085 | 149 ft | 0 kts | 264° |
| 2026-04-20 21:09 | -53.00406 | -70.85127 | 149 ft | 5 kts | 245° |
| 2026-04-20 21:10 | -53.00423 | -70.85156 | 150 ft | 2 kts | 217° |
| 2026-04-20 21:10 | -53.00438 | -70.85169 | 150 ft | 6 kts | 208° |
| 2026-04-20 21:10 | -53.00476 | -70.85203 | 150 ft | 5 kts | 208° |
| 2026-04-20 21:10 | -53.00504 | -70.85229 | 150 ft | 4 kts | 208° |
| 2026-04-20 21:11 | -53.00533 | -70.85256 | 150 ft | 6 kts | 209° |
| 2026-04-20 21:11 | -53.00585 | -70.85303 | 151 ft | 8 kts | 209° |
| 2026-04-20 21:11 | -53.00625 | -70.85341 | 152 ft | 5 kts | 209° |
| 2026-04-20 21:11 | -53.00678 | -70.85391 | 151 ft | 12 kts | 210° |
| 2026-04-20 21:12 | -53.00752 | -70.85424 | 150 ft | 11 kts | 150° |
| 2026-04-20 21:12 | -53.00814 | -70.85337 | 148 ft | 12 kts | 141° |
| 2026-04-20 21:12 | -53.00867 | -70.85257 | 148 ft | 8 kts | 138° |
| 2026-04-20 21:12 | -53.00911 | -70.85192 | 147 ft | 12 kts | 140° |
| 2026-04-20 21:13 | -53.00972 | -70.85104 | 146 ft | 11 kts | 138° |
| 2026-04-20 21:13 | -53.01033 | -70.85015 | 148 ft | 14 kts | 139° |
| 2026-04-20 21:13 | -53.01101 | -70.84918 | 148 ft | 13 kts | 139° |
| 2026-04-20 21:13 | -53.01172 | -70.84814 | 149 ft | 12 kts | 138° |
| 2026-04-20 21:14 | -53.01232 | -70.84725 | 149 ft | 11 kts | 138° |
| 2026-04-20 21:14 | -53.01289 | -70.84642 | 148 ft | 11 kts | 138° |
| 2026-04-20 21:14 | -53.01347 | -70.84589 | 148 ft | 9 kts | 159° |
| 2026-04-20 21:14 | -53.01368 | -70.84541 | 148 ft | 2 kts | 24° |
| 2026-04-20 21:15 | -53.01358 | -70.84542 | 148 ft | 0 kts | 352° |
| 2026-04-20 21:15 | -53.01355 | -70.84548 | 148 ft | 2 kts | 323° |
| 2026-04-20 21:15 | -53.01349 | -70.84556 | 148 ft | 0 kts | 319° |
| 2026-04-20 21:17 | -53.01339 | -70.84572 | 148 ft | 18 kts | 319° |
| 2026-04-20 21:18 | -53.01048 | -70.85000 | 148 ft | 90 kts | 318° |
| 2026-04-20 21:18 | -53.00426 | -70.85901 | 148 ft | 145 kts | 319° |
| 2026-04-20 21:18 | -52.99583 | -70.87063 | 539 ft | 162 kts | 317° |
| 2026-04-20 21:18 | -52.98758 | -70.88364 | 1211 ft | 164 kts | 308° |
| 2026-04-20 21:19 | -52.98030 | -70.89840 | 1764 ft | 171 kts | 305° |
| 2026-04-20 21:19 | -52.97269 | -70.91496 | 2109 ft | 191 kts | 306° |
| 2026-04-20 21:19 | -52.96430 | -70.93379 | 2482 ft | 215 kts | 306° |
| 2026-04-20 21:20 | -52.94481 | -70.97682 | 3593 ft | 248 kts | 307° |
| 2026-04-20 21:20 | -52.93420 | -70.99968 | 4437 ft | 252 kts | 308° |
| 2026-04-20 21:20 | -52.92339 | -71.02271 | 5340 ft | 253 kts | 308° |
| 2026-04-20 21:20 | -52.91253 | -71.04570 | 6258 ft | 254 kts | 307° |
| 2026-04-20 21:21 | -52.90155 | -71.06874 | 6784 ft | 255 kts | 309° |
| 2026-04-20 21:21 | -52.88935 | -71.09000 | 6956 ft | 254 kts | 312° |
| 2026-04-20 21:21 | -52.87721 | -71.11055 | 6993 ft | 253 kts | 312° |
| 2026-04-20 21:21 | -52.86492 | -71.13135 | 7060 ft | 255 kts | 312° |
| 2026-04-20 21:22 | -52.85248 | -71.15236 | 7894 ft | 255 kts | 312° |
| 2026-04-20 21:22 | -52.83998 | -71.17347 | 8770 ft | 257 kts | 312° |
| 2026-04-20 21:22 | -52.82747 | -71.19459 | 9588 ft | 258 kts | 311° |
| 2026-04-20 21:22 | -52.81483 | -71.21589 | 10319 ft | 265 kts | 311° |
| 2026-04-20 21:23 | -52.80138 | -71.23864 | 10549 ft | 288 kts | 311° |
| 2026-04-20 21:23 | -52.78679 | -71.26338 | 10793 ft | 309 kts | 311° |
| 2026-04-20 21:23 | -52.77156 | -71.28911 | 11369 ft | 316 kts | 311° |
| 2026-04-20 21:23 | -52.75604 | -71.31517 | 12054 ft | 320 kts | 311° |
| 2026-04-20 21:24 | -52.74034 | -71.34145 | 12738 ft | 323 kts | 311° |
| 2026-04-20 21:24 | -52.72454 | -71.36785 | 13410 ft | 326 kts | 311° |
| 2026-04-20 21:24 | -52.70802 | -71.39400 | 14066 ft | 330 kts | 314° |
| 2026-04-20 21:24 | -52.69098 | -71.41956 | 14710 ft | 333 kts | 315° |
| 2026-04-20 21:25 | -52.67356 | -71.44508 | 15333 ft | 336 kts | 315° |
| 2026-04-20 21:25 | -52.65594 | -71.47077 | 15917 ft | 340 kts | 315° |
| 2026-04-20 21:25 | -52.63821 | -71.49677 | 16501 ft | 343 kts | 315° |
| 2026-04-20 21:25 | -52.62038 | -71.52305 | 17072 ft | 346 kts | 315° |
| 2026-04-20 21:26 | -52.60241 | -71.54962 | 17611 ft | 349 kts | 315° |
| 2026-04-20 21:26 | -52.58452 | -71.57613 | 18139 ft | 352 kts | 315° |
| 2026-04-20 21:26 | -52.56603 | -71.60359 | 18652 ft | 355 kts | 315° |
| 2026-04-20 21:26 | -52.54762 | -71.63094 | 19157 ft | 358 kts | 315° |
| 2026-04-20 21:27 | -52.52909 | -71.65839 | 19657 ft | 360 kts | 315° |
| 2026-04-20 21:27 | -52.51037 | -71.68605 | 20153 ft | 363 kts | 315° |
| 2026-04-20 21:27 | -52.49179 | -71.71350 | 20608 ft | 366 kts | 315° |
| 2026-04-20 21:27 | -52.47257 | -71.74184 | 21048 ft | 369 kts | 315° |
| 2026-04-20 21:28 | -52.45364 | -71.76969 | 21511 ft | 371 kts | 315° |
| 2026-04-20 21:28 | -52.43433 | -71.79804 | 21947 ft | 373 kts | 315° |
| 2026-04-20 21:28 | -52.41495 | -71.82654 | 22387 ft | 375 kts | 315° |
| 2026-04-20 21:28 | -52.39547 | -71.85513 | 22804 ft | 378 kts | 315° |
| 2026-04-20 21:29 | -52.37579 | -71.88394 | 23216 ft | 380 kts | 315° |
| 2026-04-20 21:29 | -52.35599 | -71.91288 | 23619 ft | 383 kts | 316° |
| 2026-04-20 21:29 | -52.33609 | -71.94197 | 24014 ft | 385 kts | 315° |
| 2026-04-20 21:29 | -52.31606 | -71.97117 | 24399 ft | 387 kts | 315° |
| 2026-04-20 21:30 | -52.29591 | -72.00051 | 24771 ft | 389 kts | 315° |
| 2026-04-20 21:30 | -52.27563 | -72.03003 | 25133 ft | 391 kts | 315° |
| 2026-04-20 21:30 | -52.25525 | -72.05965 | 25461 ft | 394 kts | 315° |
| 2026-04-20 21:30 | -52.23475 | -72.08937 | 25814 ft | 395 kts | 315° |
| 2026-04-20 21:31 | -52.21413 | -72.11928 | 26137 ft | 398 kts | 315° |
| 2026-04-20 21:31 | -52.19341 | -72.14931 | 26487 ft | 399 kts | 315° |
| 2026-04-20 21:31 | -52.17253 | -72.17953 | 26810 ft | 402 kts | 315° |
| 2026-04-20 21:31 | -52.15161 | -72.20980 | 27132 ft | 403 kts | 315° |
| 2026-04-20 21:32 | -52.13058 | -72.24015 | 27437 ft | 405 kts | 315° |
| 2026-04-20 21:32 | -52.10946 | -72.27059 | 27753 ft | 407 kts | 315° |
| 2026-04-20 21:32 | -52.09538 | -72.29083 | 27944 ft | 408 kts | 315° |
| 2026-04-20 21:32 | -52.07403 | -72.32147 | 28216 ft | 410 kts | 315° |
| 2026-04-20 21:33 | -52.05259 | -72.35223 | 28491 ft | 412 kts | 314° |
| 2026-04-20 21:33 | -52.03105 | -72.38312 | 28753 ft | 414 kts | 314° |
| 2026-04-20 21:33 | -52.00940 | -72.41415 | 29020 ft | 415 kts | 314° |
| 2026-04-20 21:33 | -51.98786 | -72.44493 | 29285 ft | 417 kts | 314° |
| 2026-04-20 21:34 | -51.96595 | -72.47622 | 29537 ft | 418 kts | 314° |
| 2026-04-20 21:34 | -51.94414 | -72.50738 | 29830 ft | 418 kts | 314° |
| 2026-04-20 21:34 | -51.92234 | -72.53845 | 30183 ft | 417 kts | 314° |
| 2026-04-20 21:34 | -51.90049 | -72.56951 | 30517 ft | 416 kts | 314° |
| 2026-04-20 21:35 | -51.87871 | -72.60034 | 30862 ft | 415 kts | 314° |
| 2026-04-20 21:35 | -51.85692 | -72.63114 | 31221 ft | 414 kts | 314° |
| 2026-04-20 21:35 | -51.83496 | -72.66088 | 31545 ft | 415 kts | 319° |
| 2026-04-20 21:35 | -51.81052 | -72.68610 | 31876 ft | 417 kts | 324° |
| 2026-04-20 21:36 | -51.78611 | -72.70954 | 32196 ft | 416 kts | 324° |
| 2026-04-20 21:36 | -51.76127 | -72.73341 | 32527 ft | 415 kts | 324° |
| 2026-04-20 21:36 | -51.73649 | -72.75720 | 32862 ft | 413 kts | 324° |
| 2026-04-20 21:36 | -51.71219 | -72.78058 | 33178 ft | 412 kts | 324° |
| 2026-04-20 21:37 | -51.68753 | -72.80426 | 33461 ft | 412 kts | 324° |
| 2026-04-20 21:37 | -51.66292 | -72.82782 | 33661 ft | 411 kts | 324° |
| 2026-04-20 21:37 | -51.63834 | -72.85133 | 33703 ft | 410 kts | 324° |
| 2026-04-20 21:38 | -51.58931 | -72.89813 | 33704 ft | 409 kts | 324° |
| 2026-04-20 21:38 | -51.54026 | -72.94473 | 33700 ft | 410 kts | 324° |
| 2026-04-20 21:39 | -51.49117 | -72.99136 | 33700 ft | 410 kts | 324° |
| 2026-04-20 21:39 | -51.44205 | -73.03789 | 33700 ft | 410 kts | 324° |
| 2026-04-20 21:40 | -51.39291 | -73.08436 | 33697 ft | 409 kts | 324° |
| 2026-04-20 21:40 | -51.34384 | -73.13061 | 33696 ft | 409 kts | 324° |
| 2026-04-20 21:41 | -51.29469 | -73.17675 | 33698 ft | 410 kts | 324° |
| 2026-04-20 21:41 | -51.24553 | -73.22287 | 33697 ft | 410 kts | 325° |
| 2026-04-20 21:42 | -51.19661 | -73.26868 | 33694 ft | 410 kts | 325° |
| 2026-04-20 21:42 | -51.14726 | -73.31465 | 33696 ft | 410 kts | 325° |
| 2026-04-20 21:43 | -51.09786 | -73.36055 | 33699 ft | 411 kts | 325° |
| 2026-04-20 21:43 | -51.04840 | -73.40637 | 33703 ft | 411 kts | 325° |
| 2026-04-20 21:44 | -50.99890 | -73.45211 | 33702 ft | 412 kts | 325° |
| 2026-04-20 21:44 | -50.94936 | -73.49786 | 33706 ft | 412 kts | 325° |
| 2026-04-20 21:45 | -50.89978 | -73.54359 | 33709 ft | 412 kts | 325° |
| 2026-04-20 21:45 | -50.85000 | -73.58917 | 33711 ft | 413 kts | 326° |
| 2026-04-20 21:46 | -50.80053 | -73.63440 | 33712 ft | 413 kts | 325° |
| 2026-04-20 21:46 | -50.75080 | -73.68016 | 33711 ft | 414 kts | 326° |
| 2026-04-20 21:47 | -50.70090 | -73.72568 | 33713 ft | 414 kts | 326° |
| 2026-04-20 21:47 | -50.65087 | -73.77111 | 33715 ft | 415 kts | 326° |
| 2026-04-20 21:48 | -50.60081 | -73.81652 | 33715 ft | 416 kts | 326° |
| 2026-04-20 21:48 | -50.55047 | -73.86200 | 33715 ft | 417 kts | 326° |
| 2026-04-20 21:49 | -50.50023 | -73.90724 | 33705 ft | 416 kts | 326° |
| 2026-04-20 21:49 | -50.45002 | -73.95245 | 33713 ft | 417 kts | 326° |
| 2026-04-20 21:50 | -50.39926 | -73.99693 | 33714 ft | 420 kts | 331° |
| 2026-04-20 21:50 | -50.34214 | -74.02057 | 33719 ft | 433 kts | 351° |
| 2026-04-20 21:51 | -50.28140 | -74.01609 | 33719 ft | 439 kts | 360° |
| 2026-04-20 21:51 | -50.22044 | -74.00789 | 33749 ft | 440 kts | 359° |
| 2026-04-20 21:52 | -50.15934 | -73.99993 | 33754 ft | 441 kts | 359° |
| 2026-04-20 21:52 | -50.09826 | -73.99190 | 33759 ft | 441 kts | 360° |
| 2026-04-20 21:53 | -50.03716 | -73.98373 | 33759 ft | 440 kts | 360° |
| 2026-04-20 21:53 | -49.97615 | -73.97560 | 33764 ft | 440 kts | 359° |
| 2026-04-20 21:54 | -49.91506 | -73.96758 | 33775 ft | 440 kts | 359° |
| 2026-04-20 21:54 | -49.88210 | -73.96329 | 33777 ft | 440 kts | 359° |
| 2026-04-20 21:57 | -49.86358 | -73.96089 | 33779 ft | 440 kts | 359° |
| 2026-04-20 21:57 | -49.80252 | -73.95299 | 33780 ft | 440 kts | 359° |
| 2026-04-20 21:58 | -49.74157 | -73.94515 | 33772 ft | 440 kts | 359° |
| 2026-04-20 21:58 | -49.68039 | -73.93720 | 33772 ft | 441 kts | 359° |
| 2026-04-20 21:59 | -49.61936 | -73.92917 | 33781 ft | 441 kts | 359° |
| 2026-04-20 21:59 | -49.55865 | -73.92127 | 33767 ft | 440 kts | 359° |
| 2026-04-20 22:00 | -49.53308 | -73.91796 | 33782 ft | 441 kts | 359° |
| 2026-04-20 22:00 | -49.51163 | -73.91520 | 33782 ft | 441 kts | 359° |
| 2026-04-20 22:01 | -49.45049 | -73.90739 | 33781 ft | 440 kts | 359° |
| 2026-04-20 22:01 | -49.38934 | -73.89948 | 33783 ft | 441 kts | 359° |
| 2026-04-20 22:02 | -49.32862 | -73.89158 | 33789 ft | 441 kts | 359° |
| 2026-04-20 22:02 | -49.26736 | -73.88364 | 33790 ft | 441 kts | 358° |
| 2026-04-20 22:03 | -49.20618 | -73.87580 | 33789 ft | 441 kts | 358° |
| 2026-04-20 22:03 | -49.14495 | -73.86814 | 33792 ft | 441 kts | 358° |
| 2026-04-20 22:04 | -49.08372 | -73.86044 | 33794 ft | 442 kts | 358° |
| 2026-04-20 22:04 | -49.02283 | -73.85269 | 33794 ft | 442 kts | 358° |
| 2026-04-20 22:05 | -48.96145 | -73.84496 | 33798 ft | 442 kts | 357° |
| 2026-04-20 22:05 | -48.90018 | -73.83724 | 33802 ft | 442 kts | 357° |
| 2026-04-20 22:06 | -48.83871 | -73.82951 | 33807 ft | 443 kts | 357° |
| 2026-04-20 22:06 | -48.77730 | -73.82180 | 33812 ft | 443 kts | 357° |
| 2026-04-20 22:07 | -48.71584 | -73.81396 | 33818 ft | 443 kts | 357° |
| 2026-04-20 22:07 | -48.65435 | -73.80620 | 33823 ft | 443 kts | 356° |
| 2026-04-20 22:08 | -48.59285 | -73.79869 | 33827 ft | 443 kts | 356° |
| 2026-04-20 22:08 | -48.53131 | -73.79111 | 33836 ft | 444 kts | 356° |
| 2026-04-20 22:09 | -48.46960 | -73.78353 | 33839 ft | 444 kts | 356° |
| 2026-04-20 22:09 | -48.40802 | -73.77580 | 33845 ft | 445 kts | 356° |
| 2026-04-20 22:10 | -48.34667 | -73.76818 | 33854 ft | 445 kts | 356° |
| 2026-04-20 22:10 | -48.28493 | -73.76059 | 33859 ft | 445 kts | 356° |
| 2026-04-20 22:11 | -48.22298 | -73.75311 | 33872 ft | 446 kts | 356° |
| 2026-04-20 22:11 | -48.16105 | -73.74556 | 33882 ft | 447 kts | 356° |
| 2026-04-20 22:12 | -48.09917 | -73.73800 | 33881 ft | 445 kts | 356° |
| 2026-04-20 22:12 | -48.03744 | -73.73055 | 33890 ft | 445 kts | 356° |
| 2026-04-20 22:13 | -47.97569 | -73.72302 | 33902 ft | 445 kts | 356° |
| 2026-04-20 22:13 | -47.91385 | -73.71546 | 33912 ft | 446 kts | 356° |
| 2026-04-20 22:14 | -47.85202 | -73.70805 | 33921 ft | 446 kts | 356° |
| 2026-04-20 22:14 | -47.79014 | -73.70066 | 33943 ft | 446 kts | 356° |
| 2026-04-20 22:15 | -47.72863 | -73.69324 | 33949 ft | 446 kts | 356° |
| 2026-04-20 22:15 | -47.66663 | -73.68582 | 33965 ft | 447 kts | 356° |
| 2026-04-20 22:16 | -47.60472 | -73.67832 | 33966 ft | 446 kts | 356° |
| 2026-04-20 22:16 | -47.54278 | -73.67087 | 33974 ft | 447 kts | 356° |
| 2026-04-20 22:17 | -47.48079 | -73.66352 | 33978 ft | 447 kts | 356° |
| 2026-04-20 22:17 | -47.41881 | -73.65621 | 33984 ft | 447 kts | 356° |
| 2026-04-20 22:18 | -47.35713 | -73.64895 | 33989 ft | 447 kts | 356° |
| 2026-04-20 22:18 | -47.29503 | -73.64157 | 33994 ft | 448 kts | 356° |
| 2026-04-20 22:19 | -47.23284 | -73.63426 | 34001 ft | 448 kts | 356° |
| 2026-04-20 22:19 | -47.18110 | -73.62820 | 34003 ft | 448 kts | 356° |
| 2026-04-20 22:20 | -47.11885 | -73.62087 | 34005 ft | 448 kts | 356° |
| 2026-04-20 22:20 | -47.05662 | -73.61366 | 34011 ft | 449 kts | 356° |
| 2026-04-20 22:21 | -46.99423 | -73.60642 | 34011 ft | 449 kts | 356° |
| 2026-04-20 22:21 | -46.93243 | -73.60219 | 34016 ft | 446 kts | 354° |
| 2026-04-20 22:22 | -46.85977 | -73.59995 | 34016 ft | 447 kts | 354° |
| 2026-04-20 22:22 | -46.80802 | -73.59803 | 34023 ft | 448 kts | 354° |
| 2026-04-20 22:23 | -46.74561 | -73.59515 | 34031 ft | 448 kts | 354° |
| 2026-04-20 22:23 | -46.68316 | -73.59213 | 34037 ft | 449 kts | 354° |
| 2026-04-20 22:24 | -46.62066 | -73.58914 | 34039 ft | 449 kts | 355° |
| 2026-04-20 22:24 | -46.55801 | -73.58619 | 34044 ft | 450 kts | 354° |
| 2026-04-20 22:25 | -46.49578 | -73.58341 | 34049 ft | 451 kts | 355° |
| 2026-04-20 22:25 | -46.43309 | -73.58045 | 34051 ft | 451 kts | 355° |
| 2026-04-20 22:26 | -46.37021 | -73.57741 | 34051 ft | 451 kts | 355° |
| 2026-04-20 22:26 | -46.30745 | -73.57436 | 34054 ft | 451 kts | 355° |
| 2026-04-20 22:27 | -46.21315 | -73.57004 | 34055 ft | 452 kts | 355° |
| 2026-04-20 22:27 | -46.15062 | -73.56715 | 34058 ft | 452 kts | 355° |
| 2026-04-20 22:28 | -46.08774 | -73.56429 | 34058 ft | 452 kts | 355° |
| 2026-04-20 22:28 | -46.02482 | -73.56149 | 34061 ft | 452 kts | 355° |
| 2026-04-20 22:29 | -45.96183 | -73.55854 | 34061 ft | 452 kts | 355° |
| 2026-04-20 22:29 | -45.89877 | -73.55562 | 34063 ft | 453 kts | 355° |
| 2026-04-20 22:30 | -45.83572 | -73.55283 | 34096 ft | 453 kts | 355° |
| 2026-04-20 22:30 | -45.77256 | -73.54993 | 34104 ft | 454 kts | 355° |
| 2026-04-20 22:31 | -45.70946 | -73.54705 | 34111 ft | 453 kts | 355° |
| 2026-04-20 22:31 | -45.64674 | -73.54425 | 34114 ft | 453 kts | 355° |
| 2026-04-20 22:32 | -45.58361 | -73.54148 | 34114 ft | 453 kts | 355° |
| 2026-04-20 22:32 | -45.52051 | -73.53866 | 34115 ft | 454 kts | 355° |
| 2026-04-20 22:33 | -45.45732 | -73.53580 | 34115 ft | 454 kts | 356° |
| 2026-04-20 22:33 | -45.39415 | -73.53289 | 34119 ft | 454 kts | 356° |
| 2026-04-20 22:34 | -45.33101 | -73.53002 | 34122 ft | 454 kts | 356° |
| 2026-04-20 22:34 | -45.26817 | -73.52723 | 34123 ft | 454 kts | 356° |
| 2026-04-20 22:35 | -45.20500 | -73.52443 | 34126 ft | 455 kts | 356° |
| 2026-04-20 22:35 | -45.14173 | -73.52127 | 34130 ft | 456 kts | 358° |
| 2026-04-20 22:36 | -45.07829 | -73.51411 | 34133 ft | 458 kts | 0° |
| 2026-04-20 22:36 | -45.01485 | -73.50480 | 34135 ft | 458 kts | 1° |
| 2026-04-20 22:37 | -44.95133 | -73.49600 | 34139 ft | 458 kts | 0° |
| 2026-04-20 22:37 | -44.88792 | -73.48815 | 34142 ft | 458 kts | 0° |
| 2026-04-20 22:38 | -44.82434 | -73.48048 | 34148 ft | 458 kts | 0° |
| 2026-04-20 22:38 | -44.76079 | -73.47260 | 34152 ft | 459 kts | 0° |
| 2026-04-20 22:39 | -44.69764 | -73.46476 | 34157 ft | 458 kts | 0° |
| 2026-04-20 22:39 | -44.63397 | -73.45688 | 34160 ft | 459 kts | 1° |
| 2026-04-20 22:40 | -44.57031 | -73.44906 | 34165 ft | 459 kts | 1° |
| 2026-04-20 22:40 | -44.50667 | -73.44119 | 34168 ft | 459 kts | 1° |
| 2026-04-20 22:41 | -44.44306 | -73.43338 | 34173 ft | 459 kts | 1° |
| 2026-04-20 22:41 | -44.37941 | -73.42560 | 34177 ft | 459 kts | 1° |
| 2026-04-20 22:42 | -44.31626 | -73.41781 | 34181 ft | 459 kts | 1° |
| 2026-04-20 22:42 | -44.25261 | -73.41008 | 34187 ft | 458 kts | 1° |
| 2026-04-20 22:43 | -44.18905 | -73.40237 | 34189 ft | 459 kts | 1° |
| 2026-04-20 22:43 | -44.12545 | -73.39462 | 34194 ft | 459 kts | 1° |
| 2026-04-20 22:44 | -44.06182 | -73.38689 | 34199 ft | 459 kts | 1° |